sensor_id;sensor_type;location;lat;lon;timestamp;temperature;humidity
2477;DHT22;1249;51.270;6.756;2022-10-16T00:00:36;17.70;99.90
2477;DHT22;1249;51.270;6.756;2022-10-16T00:03:04;17.70;99.90
2477;DHT22;1249;51.270;6.756;2022-10-16T00:05:31;17.60;99.90
2477;DHT22;1249;51.270;6.756;2022-10-16T00:07:58;17.60;99.90
2477;DHT22;1249;51.270;6.756;2022-10-16T00:10:25;17.60;99.90
2477;DHT22;1249;51.270;6.756;2022-10-16T00:12:53;17.60;99.90
2477;DHT22;1249;51.270;6.756;2022-10-16T00:15:20;17.60;99.90
2477;DHT22;1249;51.270;6.756;2022-10-16T00:17:47;17.60;99.90
2477;DHT22;1249;51.270;6.756;2022-10-16T00:20:13;17.60;99.90
2477;DHT22;1249;51.270;6.756;2022-10-16T00:22:40;17.50;99.90
2477;DHT22;1249;51.270;6.756;2022-10-16T00:25:07;17.50;99.90
2477;DHT22;1249;51.270;6.756;2022-10-16T00:27:34;17.60;99.90
2477;DHT22;1249;51.270;6.756;2022-10-16T00:30:03;17.50;99.90
2477;DHT22;1249;51.270;6.756;2022-10-16T00:32:30;17.50;99.90
2477;DHT22;1249;51.270;6.756;2022-10-16T00:34:57;17.50;99.90
2477;DHT22;1249;51.270;6.756;2022-10-16T00:37:23;17.50;99.90
2477;DHT22;1249;51.270;6.756;2022-10-16T00:39:50;17.50;99.90
2477;DHT22;1249;51.270;6.756;2022-10-16T00:42:18;17.50;99.90
2477;DHT22;1249;51.270;6.756;2022-10-16T00:44:48;17.50;99.90
2477;DHT22;1249;51.270;6.756;2022-10-16T00:47:21;17.50;99.90
2477;DHT22;1249;51.270;6.756;2022-10-16T00:49:51;17.40;99.90
2477;DHT22;1249;51.270;6.756;2022-10-16T00:52:18;17.40;99.90
2477;DHT22;1249;51.270;6.756;2022-10-16T00:54:46;17.40;99.90
2477;DHT22;1249;51.270;6.756;2022-10-16T00:57:13;17.40;99.90
2477;DHT22;1249;51.270;6.756;2022-10-16T00:59:41;17.40;99.90
2477;DHT22;1249;51.270;6.756;2022-10-16T01:02:11;17.40;99.90
2477;DHT22;1249;51.270;6.756;2022-10-16T01:04:44;17.30;99.90
2477;DHT22;1249;51.270;6.756;2022-10-16T01:07:14;17.30;99.90
2477;DHT22;1249;51.270;6.756;2022-10-16T01:09:51;17.30;99.90
2477;DHT22;1249;51.270;6.756;2022-10-16T01:12:30;17.30;99.90
2477;DHT22;1249;51.270;6.756;2022-10-16T01:15:03;17.30;99.90
2477;DHT22;1249;51.270;6.756;2022-10-16T01:17:37;17.30;99.90
2477;DHT22;1249;51.270;6.756;2022-10-16T01:20:11;17.30;99.90
2477;DHT22;1249;51.270;6.756;2022-10-16T01:22:48;17.30;99.90
2477;DHT22;1249;51.270;6.756;2022-10-16T01:25:23;17.20;99.90
2477;DHT22;1249;51.270;6.756;2022-10-16T01:27:53;17.20;99.90
2477;DHT22;1249;51.270;6.756;2022-10-16T01:30:23;17.20;99.90
2477;DHT22;1249;51.270;6.756;2022-10-16T01:32:55;17.20;99.90
2477;DHT22;1249;51.270;6.756;2022-10-16T01:35:25;17.20;99.90
2477;DHT22;1249;51.270;6.756;2022-10-16T01:37:57;17.20;99.90
2477;DHT22;1249;51.270;6.756;2022-10-16T01:40:27;17.20;99.90
2477;DHT22;1249;51.270;6.756;2022-10-16T01:42:59;17.20;99.90
2477;DHT22;1249;51.270;6.756;2022-10-16T01:45:28;17.20;99.90
2477;DHT22;1249;51.270;6.756;2022-10-16T01:47:57;17.20;99.90
2477;DHT22;1249;51.270;6.756;2022-10-16T01:50:24;17.20;99.90
2477;DHT22;1249;51.270;6.756;2022-10-16T01:52:54;17.20;99.90
2477;DHT22;1249;51.270;6.756;2022-10-16T01:55:27;17.20;99.90
2477;DHT22;1249;51.270;6.756;2022-10-16T01:57:58;17.20;99.90
2477;DHT22;1249;51.270;6.756;2022-10-16T02:00:27;17.20;99.90
2477;DHT22;1249;51.270;6.756;2022-10-16T02:02:55;17.20;99.90
2477;DHT22;1249;51.270;6.756;2022-10-16T02:05:26;17.20;99.90
2477;DHT22;1249;51.270;6.756;2022-10-16T02:07:55;17.20;99.90
2477;DHT22;1249;51.270;6.756;2022-10-16T02:10:22;17.20;99.90
2477;DHT22;1249;51.270;6.756;2022-10-16T02:12:53;17.10;99.90
2477;DHT22;1249;51.270;6.756;2022-10-16T02:15:24;17.10;99.90
2477;DHT22;1249;51.270;6.756;2022-10-16T02:17:51;17.20;99.90
2477;DHT22;1249;51.270;6.756;2022-10-16T02:20:20;17.20;99.90
2477;DHT22;1249;51.270;6.756;2022-10-16T02:22:50;17.20;99.90
2477;DHT22;1249;51.270;6.756;2022-10-16T02:25:23;17.20;99.90
2477;DHT22;1249;51.270;6.756;2022-10-16T02:27:54;17.20;99.90
2477;DHT22;1249;51.270;6.756;2022-10-16T02:30:26;17.20;99.90
2477;DHT22;1249;51.270;6.756;2022-10-16T02:32:56;17.20;99.90
2477;DHT22;1249;51.270;6.756;2022-10-16T02:35:25;17.10;99.90
2477;DHT22;1249;51.270;6.756;2022-10-16T02:37:52;17.10;99.90
2477;DHT22;1249;51.270;6.756;2022-10-16T02:40:20;17.20;99.90
2477;DHT22;1249;51.270;6.756;2022-10-16T02:42:50;17.10;99.90
2477;DHT22;1249;51.270;6.756;2022-10-16T02:45:17;17.20;99.90
2477;DHT22;1249;51.270;6.756;2022-10-16T02:47:46;17.20;99.90
2477;DHT22;1249;51.270;6.756;2022-10-16T02:50:13;17.10;99.90
2477;DHT22;1249;51.270;6.756;2022-10-16T02:52:39;17.10;99.90
2477;DHT22;1249;51.270;6.756;2022-10-16T02:55:07;17.20;99.90
2477;DHT22;1249;51.270;6.756;2022-10-16T02:57:34;17.10;99.90
2477;DHT22;1249;51.270;6.756;2022-10-16T03:00:02;17.20;99.90
2477;DHT22;1249;51.270;6.756;2022-10-16T03:02:29;17.10;99.90
2477;DHT22;1249;51.270;6.756;2022-10-16T03:04:57;17.20;99.90
2477;DHT22;1249;51.270;6.756;2022-10-16T03:07:24;17.20;99.90
2477;DHT22;1249;51.270;6.756;2022-10-16T03:09:51;17.20;99.90
2477;DHT22;1249;51.270;6.756;2022-10-16T03:12:18;17.10;99.90
2477;DHT22;1249;51.270;6.756;2022-10-16T03:14:44;17.10;99.90
2477;DHT22;1249;51.270;6.756;2022-10-16T03:17:11;17.10;99.90
2477;DHT22;1249;51.270;6.756;2022-10-16T03:19:38;17.10;99.90
2477;DHT22;1249;51.270;6.756;2022-10-16T03:22:07;17.10;99.90
2477;DHT22;1249;51.270;6.756;2022-10-16T03:24:33;17.10;99.90
2477;DHT22;1249;51.270;6.756;2022-10-16T03:27:00;17.10;99.90
2477;DHT22;1249;51.270;6.756;2022-10-16T03:29:27;17.10;99.90
2477;DHT22;1249;51.270;6.756;2022-10-16T03:31:58;17.10;99.90
2477;DHT22;1249;51.270;6.756;2022-10-16T03:34:25;17.00;99.90
2477;DHT22;1249;51.270;6.756;2022-10-16T03:36:51;17.00;99.90
2477;DHT22;1249;51.270;6.756;2022-10-16T03:39:20;17.00;99.90
2477;DHT22;1249;51.270;6.756;2022-10-16T03:41:46;17.00;99.90
2477;DHT22;1249;51.270;6.756;2022-10-16T03:44:14;17.00;99.90
2477;DHT22;1249;51.270;6.756;2022-10-16T03:46:41;17.00;99.90
2477;DHT22;1249;51.270;6.756;2022-10-16T03:49:08;17.00;99.90
2477;DHT22;1249;51.270;6.756;2022-10-16T03:51:34;17.00;99.90
2477;DHT22;1249;51.270;6.756;2022-10-16T03:54:01;17.00;99.90
2477;DHT22;1249;51.270;6.756;2022-10-16T03:56:29;17.00;99.90
2477;DHT22;1249;51.270;6.756;2022-10-16T03:58:56;16.90;99.90
2477;DHT22;1249;51.270;6.756;2022-10-16T04:01:23;17.00;99.90
2477;DHT22;1249;51.270;6.756;2022-10-16T04:03:49;16.90;99.90
2477;DHT22;1249;51.270;6.756;2022-10-16T04:06:16;16.90;99.90
2477;DHT22;1249;51.270;6.756;2022-10-16T04:08:43;16.90;99.90
2477;DHT22;1249;51.270;6.756;2022-10-16T04:11:10;16.80;99.90
2477;DHT22;1249;51.270;6.756;2022-10-16T04:13:38;16.90;99.90
2477;DHT22;1249;51.270;6.756;2022-10-16T04:16:04;16.80;99.90
2477;DHT22;1249;51.270;6.756;2022-10-16T04:18:31;16.80;99.90
2477;DHT22;1249;51.270;6.756;2022-10-16T04:21:02;16.80;99.90
2477;DHT22;1249;51.270;6.756;2022-10-16T04:23:29;16.80;99.90
2477;DHT22;1249;51.270;6.756;2022-10-16T04:25:56;16.80;99.90
2477;DHT22;1249;51.270;6.756;2022-10-16T04:28:22;16.80;99.90
2477;DHT22;1249;51.270;6.756;2022-10-16T04:30:51;16.70;99.90
2477;DHT22;1249;51.270;6.756;2022-10-16T04:33:17;16.70;99.90
2477;DHT22;1249;51.270;6.756;2022-10-16T04:35:44;16.70;99.90
2477;DHT22;1249;51.270;6.756;2022-10-16T04:38:11;16.70;99.90
2477;DHT22;1249;51.270;6.756;2022-10-16T04:40:38;16.70;99.90
2477;DHT22;1249;51.270;6.756;2022-10-16T04:43:05;16.70;99.90
2477;DHT22;1249;51.270;6.756;2022-10-16T04:45:32;16.70;99.90
2477;DHT22;1249;51.270;6.756;2022-10-16T04:48:00;16.70;99.90
2477;DHT22;1249;51.270;6.756;2022-10-16T04:50:27;16.80;99.90
2477;DHT22;1249;51.270;6.756;2022-10-16T04:52:54;16.80;99.90
2477;DHT22;1249;51.270;6.756;2022-10-16T04:55:20;16.70;99.90
2477;DHT22;1249;51.270;6.756;2022-10-16T04:57:47;16.70;99.90
2477;DHT22;1249;51.270;6.756;2022-10-16T05:00:15;16.70;99.90
2477;DHT22;1249;51.270;6.756;2022-10-16T05:02:42;16.70;99.90
2477;DHT22;1249;51.270;6.756;2022-10-16T05:05:10;16.70;99.90
2477;DHT22;1249;51.270;6.756;2022-10-16T05:07:37;16.70;99.90
2477;DHT22;1249;51.270;6.756;2022-10-16T05:10:04;16.70;99.90
2477;DHT22;1249;51.270;6.756;2022-10-16T05:12:31;16.70;99.90
2477;DHT22;1249;51.270;6.756;2022-10-16T05:14:58;16.70;99.90
2477;DHT22;1249;51.270;6.756;2022-10-16T05:17:25;16.70;99.90
2477;DHT22;1249;51.270;6.756;2022-10-16T05:19:52;16.70;99.90
2477;DHT22;1249;51.270;6.756;2022-10-16T05:22:20;16.70;99.90
2477;DHT22;1249;51.270;6.756;2022-10-16T05:24:47;16.70;99.90
2477;DHT22;1249;51.270;6.756;2022-10-16T05:27:14;16.70;99.90
2477;DHT22;1249;51.270;6.756;2022-10-16T05:29:44;16.60;99.90
2477;DHT22;1249;51.270;6.756;2022-10-16T05:32:11;16.60;99.90
2477;DHT22;1249;51.270;6.756;2022-10-16T05:34:38;16.70;99.90
2477;DHT22;1249;51.270;6.756;2022-10-16T05:37:05;16.60;99.90
2477;DHT22;1249;51.270;6.756;2022-10-16T05:39:33;16.60;99.90
2477;DHT22;1249;51.270;6.756;2022-10-16T05:42:00;16.60;99.90
2477;DHT22;1249;51.270;6.756;2022-10-16T05:44:26;16.60;99.90
2477;DHT22;1249;51.270;6.756;2022-10-16T05:46:53;16.50;99.90
2477;DHT22;1249;51.270;6.756;2022-10-16T05:49:20;16.20;99.90
2477;DHT22;1249;51.270;6.756;2022-10-16T05:51:47;16.10;99.90
2477;DHT22;1249;51.270;6.756;2022-10-16T05:54:14;16.10;99.90
2477;DHT22;1249;51.270;6.756;2022-10-16T05:56:42;16.10;99.90
2477;DHT22;1249;51.270;6.756;2022-10-16T05:59:09;16.00;99.90
2477;DHT22;1249;51.270;6.756;2022-10-16T06:01:36;16.20;99.90
2477;DHT22;1249;51.270;6.756;2022-10-16T06:04:03;16.40;99.90
2477;DHT22;1249;51.270;6.756;2022-10-16T06:06:29;16.50;99.90
2477;DHT22;1249;51.270;6.756;2022-10-16T06:08:57;16.70;99.90
2477;DHT22;1249;51.270;6.756;2022-10-16T06:11:27;16.80;99.90
2477;DHT22;1249;51.270;6.756;2022-10-16T06:13:57;16.90;99.90
2477;DHT22;1249;51.270;6.756;2022-10-16T06:16:26;17.00;99.90
2477;DHT22;1249;51.270;6.756;2022-10-16T06:18:54;17.00;99.90
2477;DHT22;1249;51.270;6.756;2022-10-16T06:21:22;17.10;99.90
2477;DHT22;1249;51.270;6.756;2022-10-16T06:23:51;17.20;99.90
2477;DHT22;1249;51.270;6.756;2022-10-16T06:26:20;17.30;99.90
2477;DHT22;1249;51.270;6.756;2022-10-16T06:28:47;17.30;99.90
2477;DHT22;1249;51.270;6.756;2022-10-16T06:31:16;17.40;99.90
2477;DHT22;1249;51.270;6.756;2022-10-16T06:33:43;17.40;99.90
2477;DHT22;1249;51.270;6.756;2022-10-16T06:36:13;17.50;99.90
2477;DHT22;1249;51.270;6.756;2022-10-16T06:38:40;17.50;99.90
2477;DHT22;1249;51.270;6.756;2022-10-16T06:41:09;17.60;99.90
2477;DHT22;1249;51.270;6.756;2022-10-16T06:43:36;17.70;99.90
2477;DHT22;1249;51.270;6.756;2022-10-16T06:46:04;17.80;99.90
2477;DHT22;1249;51.270;6.756;2022-10-16T06:48:33;17.80;99.90
2477;DHT22;1249;51.270;6.756;2022-10-16T06:51:01;17.80;99.90
2477;DHT22;1249;51.270;6.756;2022-10-16T06:53:30;17.90;99.90
2477;DHT22;1249;51.270;6.756;2022-10-16T06:55:57;17.90;99.90
2477;DHT22;1249;51.270;6.756;2022-10-16T06:58:24;17.90;99.90
2477;DHT22;1249;51.270;6.756;2022-10-16T07:00:55;18.00;99.90
2477;DHT22;1249;51.270;6.756;2022-10-16T07:03:22;18.00;99.90
2477;DHT22;1249;51.270;6.756;2022-10-16T07:05:50;18.10;99.90
2477;DHT22;1249;51.270;6.756;2022-10-16T07:08:17;18.10;99.90
2477;DHT22;1249;51.270;6.756;2022-10-16T07:10:44;18.10;99.90
2477;DHT22;1249;51.270;6.756;2022-10-16T07:13:10;18.10;99.90
2477;DHT22;1249;51.270;6.756;2022-10-16T07:15:38;18.10;99.90
2477;DHT22;1249;51.270;6.756;2022-10-16T07:18:05;18.00;99.90
2477;DHT22;1249;51.270;6.756;2022-10-16T07:20:32;18.00;99.90
2477;DHT22;1249;51.270;6.756;2022-10-16T07:23:00;18.00;99.90
2477;DHT22;1249;51.270;6.756;2022-10-16T07:25:27;18.00;99.90
2477;DHT22;1249;51.270;6.756;2022-10-16T07:27:54;18.10;99.90
2477;DHT22;1249;51.270;6.756;2022-10-16T07:30:22;18.10;99.90
2477;DHT22;1249;51.270;6.756;2022-10-16T07:32:49;18.20;99.90
2477;DHT22;1249;51.270;6.756;2022-10-16T07:35:16;18.10;99.90
2477;DHT22;1249;51.270;6.756;2022-10-16T07:37:44;18.20;99.90
2477;DHT22;1249;51.270;6.756;2022-10-16T07:40:12;18.20;99.90
2477;DHT22;1249;51.270;6.756;2022-10-16T07:42:39;18.30;99.90
2477;DHT22;1249;51.270;6.756;2022-10-16T07:45:06;18.30;99.90
2477;DHT22;1249;51.270;6.756;2022-10-16T07:47:33;18.30;99.90
2477;DHT22;1249;51.270;6.756;2022-10-16T07:50:00;18.30;99.90
2477;DHT22;1249;51.270;6.756;2022-10-16T07:52:27;18.40;99.90
2477;DHT22;1249;51.270;6.756;2022-10-16T07:54:53;18.40;99.90
2477;DHT22;1249;51.270;6.756;2022-10-16T07:57:21;18.40;99.90
2477;DHT22;1249;51.270;6.756;2022-10-16T07:59:48;18.40;99.90
2477;DHT22;1249;51.270;6.756;2022-10-16T08:02:15;18.50;99.90
2477;DHT22;1249;51.270;6.756;2022-10-16T08:04:41;18.50;99.90
2477;DHT22;1249;51.270;6.756;2022-10-16T08:07:08;18.70;99.90
2477;DHT22;1249;51.270;6.756;2022-10-16T08:09:35;18.60;99.90
2477;DHT22;1249;51.270;6.756;2022-10-16T08:12:02;18.70;99.90
2477;DHT22;1249;51.270;6.756;2022-10-16T08:14:30;18.70;99.90
2477;DHT22;1249;51.270;6.756;2022-10-16T08:16:57;18.80;99.90
2477;DHT22;1249;51.270;6.756;2022-10-16T08:19:24;18.80;99.90
2477;DHT22;1249;51.270;6.756;2022-10-16T08:21:51;18.90;99.90
2477;DHT22;1249;51.270;6.756;2022-10-16T08:24:20;18.90;99.90
2477;DHT22;1249;51.270;6.756;2022-10-16T08:26:47;18.90;99.90
2477;DHT22;1249;51.270;6.756;2022-10-16T08:29:14;18.80;99.90
2477;DHT22;1249;51.270;6.756;2022-10-16T08:31:42;18.90;99.90
2477;DHT22;1249;51.270;6.756;2022-10-16T08:34:09;18.90;99.90
2477;DHT22;1249;51.270;6.756;2022-10-16T08:36:36;18.90;99.90
2477;DHT22;1249;51.270;6.756;2022-10-16T08:39:03;18.90;99.90
2477;DHT22;1249;51.270;6.756;2022-10-16T08:45:08;19.00;99.90
2477;DHT22;1249;51.270;6.756;2022-10-16T08:47:45;19.10;99.90
2477;DHT22;1249;51.270;6.756;2022-10-16T08:50:18;19.00;99.90
2477;DHT22;1249;51.270;6.756;2022-10-16T08:52:47;19.00;99.90
2477;DHT22;1249;51.270;6.756;2022-10-16T08:55:32;19.10;99.90
2477;DHT22;1249;51.270;6.756;2022-10-16T08:58:00;19.20;99.90
2477;DHT22;1249;51.270;6.756;2022-10-16T09:00:27;19.20;99.90
2477;DHT22;1249;51.270;6.756;2022-10-16T09:03:03;19.20;99.90
2477;DHT22;1249;51.270;6.756;2022-10-16T09:05:52;19.30;99.90
2477;DHT22;1249;51.270;6.756;2022-10-16T09:08:27;19.30;99.90
2477;DHT22;1249;51.270;6.756;2022-10-16T09:10:58;19.50;99.90
2477;DHT22;1249;51.270;6.756;2022-10-16T09:13:31;19.90;99.90
2477;DHT22;1249;51.270;6.756;2022-10-16T09:16:14;20.70;99.90
2477;DHT22;1249;51.270;6.756;2022-10-16T09:18:50;21.70;99.90
2477;DHT22;1249;51.270;6.756;2022-10-16T09:21:26;22.60;99.00
2477;DHT22;1249;51.270;6.756;2022-10-16T09:23:57;23.50;95.20
2477;DHT22;1249;51.270;6.756;2022-10-16T09:26:25;24.30;92.60
2477;DHT22;1249;51.270;6.756;2022-10-16T09:28:52;25.00;90.50
2477;DHT22;1249;51.270;6.756;2022-10-16T09:31:20;25.40;87.50
2477;DHT22;1249;51.270;6.756;2022-10-16T09:33:53;25.70;85.60
2477;DHT22;1249;51.270;6.756;2022-10-16T09:36:21;25.90;83.90
2477;DHT22;1249;51.270;6.756;2022-10-16T09:38:49;26.10;81.00
2477;DHT22;1249;51.270;6.756;2022-10-16T09:41:21;25.70;82.60
2477;DHT22;1249;51.270;6.756;2022-10-16T09:43:54;25.70;81.00
2477;DHT22;1249;51.270;6.756;2022-10-16T09:46:25;25.70;80.90
2477;DHT22;1249;51.270;6.756;2022-10-16T09:48:56;25.50;82.00
2477;DHT22;1249;51.270;6.756;2022-10-16T09:51:25;25.70;81.00
2477;DHT22;1249;51.270;6.756;2022-10-16T09:53:56;26.00;79.70
2477;DHT22;1249;51.270;6.756;2022-10-16T09:56:25;26.00;79.30
2477;DHT22;1249;51.270;6.756;2022-10-16T09:58:53;26.30;78.60
2477;DHT22;1249;51.270;6.756;2022-10-16T10:01:21;26.10;79.30
2477;DHT22;1249;51.270;6.756;2022-10-16T10:03:49;26.20;79.40
2477;DHT22;1249;51.270;6.756;2022-10-16T10:06:23;26.10;80.70
2477;DHT22;1249;51.270;6.756;2022-10-16T10:08:58;26.00;78.60
2477;DHT22;1249;51.270;6.756;2022-10-16T10:11:48;26.00;80.50
2477;DHT22;1249;51.270;6.756;2022-10-16T10:14:23;26.00;80.30
2477;DHT22;1249;51.270;6.756;2022-10-16T10:16:51;25.90;80.90
2477;DHT22;1249;51.270;6.756;2022-10-16T10:19:21;25.60;80.90
2477;DHT22;1249;51.270;6.756;2022-10-16T10:21:50;24.60;84.20
2477;DHT22;1249;51.270;6.756;2022-10-16T10:24:18;24.70;86.40
2477;DHT22;1249;51.270;6.756;2022-10-16T10:26:50;25.10;87.60
2477;DHT22;1249;51.270;6.756;2022-10-16T10:29:28;24.90;88.70
2477;DHT22;1249;51.270;6.756;2022-10-16T10:32:08;25.10;85.90
2477;DHT22;1249;51.270;6.756;2022-10-16T10:34:52;25.40;84.50
2477;DHT22;1249;51.270;6.756;2022-10-16T10:37:35;25.00;84.20
2477;DHT22;1249;51.270;6.756;2022-10-16T10:40:12;24.60;86.70
2477;DHT22;1249;51.270;6.756;2022-10-16T10:42:46;24.00;84.90
2477;DHT22;1249;51.270;6.756;2022-10-16T10:45:24;24.30;87.10
2477;DHT22;1249;51.270;6.756;2022-10-16T10:47:59;25.10;86.10
2477;DHT22;1249;51.270;6.756;2022-10-16T10:50:36;25.10;82.60
2477;DHT22;1249;51.270;6.756;2022-10-16T10:53:15;25.60;84.00
2477;DHT22;1249;51.270;6.756;2022-10-16T10:55:47;26.00;81.20
2477;DHT22;1249;51.270;6.756;2022-10-16T10:59:02;26.40;81.10
2477;DHT22;1249;51.270;6.756;2022-10-16T11:01:40;26.50;79.20
2477;DHT22;1249;51.270;6.756;2022-10-16T11:07:07;26.80;78.90
2477;DHT22;1249;51.270;6.756;2022-10-16T11:09:41;26.90;76.80
2477;DHT22;1249;51.270;6.756;2022-10-16T11:12:12;27.00;77.40
2477;DHT22;1249;51.270;6.756;2022-10-16T11:14:45;27.10;75.10
2477;DHT22;1249;51.270;6.756;2022-10-16T11:17:17;27.20;74.60
2477;DHT22;1249;51.270;6.756;2022-10-16T11:19:48;27.10;74.60
2477;DHT22;1249;51.270;6.756;2022-10-16T11:22:20;27.30;74.40
2477;DHT22;1249;51.270;6.756;2022-10-16T11:24:54;27.10;74.80
2477;DHT22;1249;51.270;6.756;2022-10-16T11:27:33;26.80;74.10
2477;DHT22;1249;51.270;6.756;2022-10-16T11:30:02;26.40;75.80
2477;DHT22;1249;51.270;6.756;2022-10-16T11:32:35;26.40;78.20
2477;DHT22;1249;51.270;6.756;2022-10-16T11:35:14;26.50;77.50
2477;DHT22;1249;51.270;6.756;2022-10-16T11:37:46;26.50;76.20
2477;DHT22;1249;51.270;6.756;2022-10-16T11:40:21;26.40;72.50
2477;DHT22;1249;51.270;6.756;2022-10-16T11:42:54;26.80;73.00
2477;DHT22;1249;51.270;6.756;2022-10-16T11:45:28;27.00;74.40
2477;DHT22;1249;51.270;6.756;2022-10-16T11:48:00;27.30;73.40
2477;DHT22;1249;51.270;6.756;2022-10-16T11:50:33;27.60;72.30
2477;DHT22;1249;51.270;6.756;2022-10-16T11:53:04;27.80;70.70
2477;DHT22;1249;51.270;6.756;2022-10-16T11:55:39;27.50;69.60
2477;DHT22;1249;51.270;6.756;2022-10-16T11:58:09;27.10;71.40
2477;DHT22;1249;51.270;6.756;2022-10-16T12:00:43;26.60;71.60
2477;DHT22;1249;51.270;6.756;2022-10-16T12:03:17;27.00;71.80
2477;DHT22;1249;51.270;6.756;2022-10-16T12:06:00;27.30;69.50
2477;DHT22;1249;51.270;6.756;2022-10-16T12:08:33;27.00;71.00
2477;DHT22;1249;51.270;6.756;2022-10-16T12:11:09;26.80;72.10
2477;DHT22;1249;51.270;6.756;2022-10-16T12:13:38;26.30;71.80
2477;DHT22;1249;51.270;6.756;2022-10-16T12:16:07;26.60;72.00
2477;DHT22;1249;51.270;6.756;2022-10-16T12:18:46;26.90;70.90
2477;DHT22;1249;51.270;6.756;2022-10-16T12:21:14;27.20;72.30
2477;DHT22;1249;51.270;6.756;2022-10-16T12:23:48;27.50;70.70
2477;DHT22;1249;51.270;6.756;2022-10-16T12:26:24;27.80;68.20
2477;DHT22;1249;51.270;6.756;2022-10-16T12:28:51;28.00;67.30
2477;DHT22;1249;51.270;6.756;2022-10-16T12:31:18;28.20;69.50
2477;DHT22;1249;51.270;6.756;2022-10-16T12:33:56;28.40;66.70
2477;DHT22;1249;51.270;6.756;2022-10-16T12:36:28;28.10;68.00
2477;DHT22;1249;51.270;6.756;2022-10-16T12:38:55;27.60;68.00
2477;DHT22;1249;51.270;6.756;2022-10-16T12:41:29;27.30;67.50
2477;DHT22;1249;51.270;6.756;2022-10-16T12:43:56;26.90;66.70
2477;DHT22;1249;51.270;6.756;2022-10-16T12:46:35;26.50;68.90
2477;DHT22;1249;51.270;6.756;2022-10-16T12:49:20;26.40;71.30
2477;DHT22;1249;51.270;6.756;2022-10-16T12:51:47;26.10;73.40
2477;DHT22;1249;51.270;6.756;2022-10-16T12:54:16;26.10;73.90
2477;DHT22;1249;51.270;6.756;2022-10-16T12:56:53;26.70;73.30
2477;DHT22;1249;51.270;6.756;2022-10-16T12:59:31;27.20;72.00
2477;DHT22;1249;51.270;6.756;2022-10-16T13:02:18;27.20;70.00
2477;DHT22;1249;51.270;6.756;2022-10-16T13:04:56;27.50;70.80
2477;DHT22;1249;51.270;6.756;2022-10-16T13:07:44;27.30;70.10
2477;DHT22;1249;51.270;6.756;2022-10-16T13:10:21;26.80;70.40
2477;DHT22;1249;51.270;6.756;2022-10-16T13:15:54;26.30;72.70
2477;DHT22;1249;51.270;6.756;2022-10-16T13:18:29;26.80;71.60
2477;DHT22;1249;51.270;6.756;2022-10-16T13:21:11;27.30;73.00
2477;DHT22;1249;51.270;6.756;2022-10-16T13:23:49;27.70;70.80
2477;DHT22;1249;51.270;6.756;2022-10-16T13:26:26;28.00;72.00
2477;DHT22;1249;51.270;6.756;2022-10-16T13:28:59;28.10;71.10
2477;DHT22;1249;51.270;6.756;2022-10-16T13:31:28;28.30;66.70
2477;DHT22;1249;51.270;6.756;2022-10-16T13:33:58;28.20;65.60
2477;DHT22;1249;51.270;6.756;2022-10-16T13:36:27;28.00;69.00
2477;DHT22;1249;51.270;6.756;2022-10-16T13:39:10;27.50;69.30
2477;DHT22;1249;51.270;6.756;2022-10-16T13:41:37;27.30;70.40
2477;DHT22;1249;51.270;6.756;2022-10-16T13:44:12;27.50;71.80
2477;DHT22;1249;51.270;6.756;2022-10-16T13:46:40;27.30;70.60
2477;DHT22;1249;51.270;6.756;2022-10-16T13:49:12;27.00;70.00
2477;DHT22;1249;51.270;6.756;2022-10-16T13:51:39;26.90;70.10
2477;DHT22;1249;51.270;6.756;2022-10-16T13:54:09;26.50;69.70
2477;DHT22;1249;51.270;6.756;2022-10-16T13:56:38;26.30;71.50
2477;DHT22;1249;51.270;6.756;2022-10-16T13:59:23;26.50;70.50
2477;DHT22;1249;51.270;6.756;2022-10-16T14:01:52;26.70;71.50
2477;DHT22;1249;51.270;6.756;2022-10-16T14:04:20;27.00;69.60
2477;DHT22;1249;51.270;6.756;2022-10-16T14:06:50;26.70;71.60
2477;DHT22;1249;51.270;6.756;2022-10-16T14:09:21;26.20;73.00
2477;DHT22;1249;51.270;6.756;2022-10-16T14:11:52;25.80;73.90
2477;DHT22;1249;51.270;6.756;2022-10-16T14:14:21;25.50;74.20
2477;DHT22;1249;51.270;6.756;2022-10-16T14:16:48;25.20;75.00
2477;DHT22;1249;51.270;6.756;2022-10-16T14:19:20;24.80;76.30
2477;DHT22;1249;51.270;6.756;2022-10-16T14:21:49;24.60;78.30
2477;DHT22;1249;51.270;6.756;2022-10-16T14:24:25;24.40;79.60
2477;DHT22;1249;51.270;6.756;2022-10-16T14:26:53;24.40;81.00
2477;DHT22;1249;51.270;6.756;2022-10-16T14:29:22;24.40;80.80
2477;DHT22;1249;51.270;6.756;2022-10-16T14:31:57;24.60;80.00
2477;DHT22;1249;51.270;6.756;2022-10-16T14:34:25;24.60;80.10
2477;DHT22;1249;51.270;6.756;2022-10-16T14:36:53;24.60;81.00
2477;DHT22;1249;51.270;6.756;2022-10-16T14:39:21;24.40;80.80
2477;DHT22;1249;51.270;6.756;2022-10-16T14:41:50;24.20;81.10
2477;DHT22;1249;51.270;6.756;2022-10-16T14:44:18;24.00;82.70
2477;DHT22;1249;51.270;6.756;2022-10-16T14:46:47;23.80;83.10
2477;DHT22;1249;51.270;6.756;2022-10-16T14:49:17;23.70;82.30
2477;DHT22;1249;51.270;6.756;2022-10-16T14:51:45;23.50;85.00
2477;DHT22;1249;51.270;6.756;2022-10-16T14:54:14;23.30;86.20
2477;DHT22;1249;51.270;6.756;2022-10-16T14:56:45;23.20;87.30
2477;DHT22;1249;51.270;6.756;2022-10-16T14:59:16;23.10;88.20
2477;DHT22;1249;51.270;6.756;2022-10-16T15:01:44;23.10;89.40
2477;DHT22;1249;51.270;6.756;2022-10-16T15:04:13;22.90;90.00
2477;DHT22;1249;51.270;6.756;2022-10-16T15:06:40;22.80;90.90
2477;DHT22;1249;51.270;6.756;2022-10-16T15:09:06;22.80;91.30
2477;DHT22;1249;51.270;6.756;2022-10-16T15:11:33;22.80;91.70
2477;DHT22;1249;51.270;6.756;2022-10-16T15:14:01;22.70;92.10
2477;DHT22;1249;51.270;6.756;2022-10-16T15:16:29;22.70;92.40
2477;DHT22;1249;51.270;6.756;2022-10-16T15:18:56;22.70;92.80
2477;DHT22;1249;51.270;6.756;2022-10-16T15:21:26;22.60;93.10
2477;DHT22;1249;51.270;6.756;2022-10-16T15:23:53;22.60;93.30
2477;DHT22;1249;51.270;6.756;2022-10-16T15:26:20;22.60;93.70
2477;DHT22;1249;51.270;6.756;2022-10-16T15:28:46;22.60;94.00
2477;DHT22;1249;51.270;6.756;2022-10-16T15:31:13;22.60;94.40
2477;DHT22;1249;51.270;6.756;2022-10-16T15:33:40;22.70;95.20
2477;DHT22;1249;51.270;6.756;2022-10-16T15:36:07;22.70;95.70
2477;DHT22;1249;51.270;6.756;2022-10-16T15:38:36;22.80;97.80
2477;DHT22;1249;51.270;6.756;2022-10-16T15:41:03;22.70;97.50
2477;DHT22;1249;51.270;6.756;2022-10-16T15:43:30;22.60;97.90
2477;DHT22;1249;51.270;6.756;2022-10-16T15:46:02;22.40;98.40
2477;DHT22;1249;51.270;6.756;2022-10-16T15:48:30;22.30;98.60
2477;DHT22;1249;51.270;6.756;2022-10-16T15:50:57;22.30;98.90
2477;DHT22;1249;51.270;6.756;2022-10-16T15:53:24;22.30;99.30
2477;DHT22;1249;51.270;6.756;2022-10-16T15:55:52;22.30;99.70
2477;DHT22;1249;51.270;6.756;2022-10-16T15:58:19;22.30;99.90
2477;DHT22;1249;51.270;6.756;2022-10-16T16:00:54;22.20;99.90
2477;DHT22;1249;51.270;6.756;2022-10-16T16:03:21;22.20;99.90
2477;DHT22;1249;51.270;6.756;2022-10-16T16:05:48;22.20;99.90
2477;DHT22;1249;51.270;6.756;2022-10-16T16:08:14;22.20;99.90
2477;DHT22;1249;51.270;6.756;2022-10-16T16:10:42;22.20;99.90
2477;DHT22;1249;51.270;6.756;2022-10-16T16:13:10;22.10;99.90
2477;DHT22;1249;51.270;6.756;2022-10-16T16:15:39;22.20;99.90
2477;DHT22;1249;51.270;6.756;2022-10-16T16:18:06;22.10;99.90
2477;DHT22;1249;51.270;6.756;2022-10-16T16:20:34;22.00;99.90
2477;DHT22;1249;51.270;6.756;2022-10-16T16:23:01;22.00;99.90
2477;DHT22;1249;51.270;6.756;2022-10-16T16:25:28;22.10;99.90
2477;DHT22;1249;51.270;6.756;2022-10-16T16:27:55;22.00;99.90